createdAt,value
2019-06-27T00:00:09.057Z,97.70
2019-06-27T00:10:11.321Z,97.30
2019-06-27T00:20:13.685Z,97.60
2019-06-27T00:30:15.411Z,97.80
2019-06-27T00:40:17.041Z,97.90
2019-06-27T00:50:19.690Z,97.80
2019-06-27T01:00:21.318Z,97.90
2019-06-27T01:10:22.927Z,98.10
2019-06-27T01:20:24.375Z,98.50
2019-06-27T01:30:26.101Z,98.60
2019-06-27T01:40:27.740Z,98.60
2019-06-27T01:50:29.272Z,99.20
2019-06-27T02:00:31.002Z,99.30
2019-06-27T02:10:33.523Z,99.20
2019-06-27T02:20:35.073Z,99.30
2019-06-27T02:30:41.039Z,99.50
2019-06-27T02:40:42.475Z,99.80
2019-06-27T02:50:43.906Z,99.70
2019-06-27T03:00:45.533Z,99.90
2019-06-27T03:10:47.067Z,99.90
2019-06-27T03:20:48.501Z,99.90
2019-06-27T03:30:50.153Z,99.90
2019-06-27T03:40:51.682Z,99.90
2019-06-27T03:50:56.103Z,99.90
2019-06-27T04:00:56.488Z,99.90
2019-06-27T04:10:59.045Z,99.90
2019-06-27T04:21:11.137Z,99.90
2019-06-27T04:31:24.829Z,99.90
2019-06-27T04:41:28.229Z,99.90
2019-06-27T04:51:29.742Z,99.90
2019-06-27T05:01:31.278Z,99.90
2019-06-27T05:11:32.807Z,98.40
2019-06-27T05:21:34.249Z,96.40
2019-06-27T05:31:35.801Z,94.80
2019-06-27T05:41:37.340Z,92.40
2019-06-27T05:51:38.759Z,74.40
2019-06-27T06:01:40.285Z,58.80
2019-06-27T06:11:41.804Z,48.10
2019-06-27T06:21:44.430Z,44.20
2019-06-27T06:31:49.104Z,39.70
2019-06-27T06:41:49.235Z,35.90
2019-06-27T06:51:50.783Z,33.80
2019-06-27T07:01:53.425Z,32.10
2019-06-27T07:11:54.844Z,29.30
2019-06-27T07:21:56.363Z,27.40
2019-06-27T07:31:57.823Z,26.30
2019-06-27T07:41:59.241Z,23.70
2019-06-27T07:52:00.758Z,22.60
2019-06-27T08:02:02.489Z,21.60
2019-06-27T08:12:04.130Z,20.90
2019-06-27T08:22:05.555Z,20.60
2019-06-27T08:32:07.223Z,20.20
2019-06-27T08:42:08.658Z,20.70
2019-06-27T08:52:10.090Z,19.10
2019-06-27T09:02:11.532Z,19.00
2019-06-27T09:12:13.043Z,18.60
2019-06-27T09:22:14.448Z,17.60
2019-06-27T09:32:25.336Z,16.50
2019-06-27T09:42:21.437Z,15.90
2019-06-27T09:52:22.891Z,16.10
2019-06-27T10:02:37.458Z,16.40
2019-06-27T10:12:41.302Z,14.80
2019-06-27T10:22:31.532Z,15.90
2019-06-27T10:32:32.992Z,15.30
2019-06-27T10:42:34.427Z,14.10
2019-06-27T10:52:35.981Z,14.70
2019-06-27T11:02:37.612Z,13.60
2019-06-27T11:12:39.228Z,12.50
2019-06-27T11:22:40.666Z,12.70
2019-06-27T11:32:42.240Z,13.10
2019-06-27T11:42:43.696Z,14.60
2019-06-27T11:52:47.210Z,15.40
2019-06-27T12:02:48.571Z,16.00
2019-06-27T12:12:50.996Z,16.90
2019-06-27T12:22:52.612Z,18.80
2019-06-27T12:32:54.073Z,21.60
2019-06-27T12:42:55.533Z,23.90
2019-06-27T12:52:56.974Z,25.10
2019-06-27T13:02:58.528Z,27.70
2019-06-27T13:12:59.942Z,29.20
2019-06-27T13:23:01.425Z,28.80
2019-06-27T13:33:03.626Z,29.50
2019-06-27T13:43:05.148Z,28.00
2019-06-27T13:53:06.664Z,28.90
2019-06-27T14:03:08.229Z,30.20
2019-06-27T14:13:09.637Z,28.60
2019-06-27T14:23:11.184Z,30.00
2019-06-27T14:33:12.777Z,30.00
2019-06-27T14:43:14.319Z,29.80
2019-06-27T14:53:15.761Z,29.80
2019-06-27T15:03:17.235Z,32.70
2019-06-27T15:13:18.754Z,33.30
2019-06-27T15:23:20.313Z,35.10
2019-06-27T15:33:21.910Z,37.10
2019-06-27T15:43:23.345Z,37.60
2019-06-27T15:53:24.780Z,39.50
2019-06-27T16:03:26.255Z,39.80
2019-06-27T16:13:27.666Z,39.70
2019-06-27T16:23:30.795Z,39.50
2019-06-27T16:33:32.306Z,41.50
2019-06-27T16:43:33.791Z,42.00
2019-06-27T16:53:35.209Z,43.10
2019-06-27T17:03:36.769Z,45.30
2019-06-27T17:13:38.299Z,44.90
2019-06-27T17:23:39.752Z,45.00
2019-06-27T17:33:41.352Z,46.10
2019-06-27T17:43:42.809Z,47.70
2019-06-27T17:53:44.347Z,49.20
2019-06-27T18:03:45.811Z,50.80
2019-06-27T18:13:47.285Z,51.50
2019-06-27T18:23:48.689Z,49.40
2019-06-27T18:33:50.248Z,51.80
2019-06-27T18:43:51.873Z,56.20
2019-06-27T18:53:53.392Z,57.80
2019-06-27T19:03:54.877Z,58.70
2019-06-27T19:13:56.943Z,59.80
2019-06-27T19:23:58.469Z,61.00
2019-06-27T19:33:59.933Z,62.00
2019-06-27T19:44:01.601Z,63.20
2019-06-27T19:54:03.541Z,64.20
2019-06-27T20:04:05.287Z,65.90
2019-06-27T20:14:06.826Z,67.20
2019-06-27T20:24:08.263Z,68.30
2019-06-27T20:34:09.708Z,68.70
2019-06-27T20:44:11.281Z,69.20
2019-06-27T20:54:12.717Z,68.70
2019-06-27T21:04:14.285Z,68.10
2019-06-27T21:14:15.917Z,68.60
2019-06-27T21:24:17.374Z,68.50
2019-06-27T21:34:18.797Z,70.50
2019-06-27T21:44:20.281Z,71.00
2019-06-27T21:54:21.739Z,71.70
2019-06-27T22:04:23.162Z,71.90
2019-06-27T22:14:24.698Z,71.30
2019-06-27T22:24:26.256Z,73.60
2019-06-27T22:34:28.686Z,77.90
2019-06-27T22:44:48.696Z,80.00
2019-06-27T22:54:52.123Z,80.30
2019-06-27T23:04:53.545Z,80.70
2019-06-27T23:14:56.089Z,80.80
2019-06-27T23:24:57.618Z,80.70
2019-06-27T23:34:59.044Z,81.40
2019-06-27T23:45:00.510Z,81.60
2019-06-27T23:55:02.825Z,83.00
